Cibola, Arizona
Current Conditions -  °F | °C
As of 1:52 PM on Saturday 25 Oct 2014 (Local Time) from KBLH Reporting Station
Clear Clear  
Wind Chill: 92°   Ceiling: Unl
Heat Index: 92°   Visibility: 10mi
Dew Point: 45°   Wind: 6mph
Humidity: 20%   Direction: 110°ESE
Pressure: 29.92"   Gusts: NA
Location:  33.32°N, 114.67°W
Report Text: KBLH 252052Z AUTO 11005KT 10SM CLR 33/07 A2992 RMK AO2 SLP125 T03330072 58026 $
Loading
Personal Weather Stations






























Interactive Weather Map
Tropical Storm Tracking
New forecast layout! Learn more

10-Day Weather Forecast

Advertisements
Track Severe Weather on mobile